Time;durP1;ratioP1;P1;durP2;ratioP2;P2;SDS_P1;SDS_P2;PMS_P1;PMS_P2;Temp;Humidity;BMP_temperature;BMP_pressure;BME280_temperature;BME280_humidity;BME280_pressure;Samples;Min_cycle;Max_cycle;Signal;HPM_P1;HPM_P2
2021/04/19 00:00:34;;;;;;;3.70;3.00;;;;;;;7.55;75.17;99696.84;5013269;28;20038;-63
2021/04/19 00:02:59;;;;;;;4.30;3.13;;;;;;;7.59;76.00;99701.75;5012321;28;20026;-63
2021/04/19 00:05:25;;;;;;;4.05;3.10;;;;;;;7.50;77.36;99699.34;5013087;28;20485;-63
2021/04/19 00:07:50;;;;;;;3.80;2.70;;;;;;;7.52;76.42;99694.63;5013587;28;20033;-63
2021/04/19 00:10:17;;;;;;;3.70;2.90;;;;;;;7.51;75.95;99685.00;5013005;28;20030;-63
2021/04/19 00:12:43;;;;;;;4.43;2.70;;;;;;;7.52;76.77;99691.13;5013258;28;20050;-63
2021/04/19 00:15:09;;;;;;;3.58;2.80;;;;;;;7.46;78.71;99684.81;5013201;28;20380;-63
2021/04/19 00:17:35;;;;;;;4.80;3.60;;;;;;;7.34;79.61;99671.28;5013427;28;20050;-63
2021/04/19 00:20:01;;;;;;;4.57;3.55;;;;;;;7.35;79.04;99682.78;5012938;28;20435;-63
2021/04/19 00:22:26;;;;;;;4.95;4.03;;;;;;;7.29;79.03;99680.97;5013236;28;20431;-63
2021/04/19 00:24:51;;;;;;;6.03;4.50;;;;;;;7.31;78.95;99682.41;5012006;28;20032;-63
2021/04/19 00:27:17;;;;;;;5.20;4.22;;;;;;;7.26;79.96;99678.69;5012767;28;20439;-63
2021/04/19 00:29:42;;;;;;;4.95;4.30;;;;;;;7.25;79.91;99675.22;5013306;28;20022;-63
2021/04/19 00:32:08;;;;;;;4.90;4.03;;;;;;;7.24;79.97;99667.41;5011511;28;20370;-63
2021/04/19 00:34:33;;;;;;;4.95;3.95;;;;;;;7.21;79.62;99665.19;5013149;28;20101;-63
2021/04/19 00:36:59;;;;;;;5.18;4.00;;;;;;;7.23;79.76;99668.47;5012899;28;20038;-63
2021/04/19 00:39:24;;;;;;;6.43;4.65;;;;;;;7.20;79.29;99672.34;5013080;28;20022;-63
2021/04/19 00:41:49;;;;;;;6.20;4.53;;;;;;;7.21;79.29;99676.66;5012680;28;20038;-63
2021/04/19 00:44:15;;;;;;;6.70;4.82;;;;;;;7.21;79.62;99678.50;5013640;28;20038;-63
2021/04/19 00:46:40;;;;;;;6.93;5.75;;;;;;;7.15;80.81;99684.69;5015439;28;20037;-63
2021/04/19 00:49:06;;;;;;;8.35;6.03;;;;;;;7.00;83.26;99676.94;5015831;28;20032;-63
2021/04/19 00:51:31;;;;;;;9.07;6.18;;;;;;;7.02;82.19;99665.03;5016639;28;20452;-63
2021/04/19 00:53:56;;;;;;;7.13;6.10;;;;;;;7.00;83.35;99653.75;5015896;28;20453;-64
2021/04/19 00:56:22;;;;;;;7.80;6.88;;;;;;;6.98;82.34;99652.31;5016694;28;20485;-64
2021/04/19 00:58:48;;;;;;;9.90;7.25;;;;;;;6.89;82.92;99654.41;5015951;28;20594;-64
2021/04/19 01:01:13;;;;;;;9.13;7.30;;;;;;;6.97;82.17;99651.50;5015400;28;20076;-64
2021/04/19 01:03:42;;;;;;;8.68;7.72;;;;;;;6.92;82.81;99659.31;4999277;28;20026;-64
2021/04/19 01:06:07;;;;;;;8.50;7.20;;;;;;;6.93;82.77;99655.59;5016298;28;20489;-64
2021/04/19 01:08:33;;;;;;;8.27;7.43;;;;;;;6.87;83.01;99653.78;5016738;28;20018;-64
2021/04/19 01:10:58;;;;;;;10.00;7.97;;;;;;;6.84;83.57;99652.34;5016206;28;20080;-64
2021/04/19 01:13:24;;;;;;;9.40;7.80;;;;;;;6.90;83.38;99656.84;5016433;28;20512;-64
2021/04/19 01:15:49;;;;;;;11.32;8.18;;;;;;;6.82;83.17;99657.06;5016167;28;20052;-64
2021/04/19 01:18:14;;;;;;;10.88;7.93;;;;;;;6.83;83.53;99655.22;5016721;28;20034;-64
2021/04/19 01:20:43;;;;;;;9.48;8.02;;;;;;;6.72;83.88;99661.19;5016180;28;20033;-64
2021/04/19 01:23:10;;;;;;;11.93;8.95;;;;;;;6.62;84.60;99665.09;5016441;28;20493;-64
2021/04/19 01:25:36;;;;;;;9.32;8.32;;;;;;;6.60;84.65;99655.66;5015756;28;20072;-64
2021/04/19 01:28:01;;;;;;;11.45;9.25;;;;;;;6.52;84.68;99658.53;5016473;28;20030;-64
2021/04/19 01:30:31;;;;;;;11.23;9.18;;;;;;;6.55;84.82;99660.78;5015905;28;20061;-64
2021/04/19 01:32:57;;;;;;;10.45;9.35;;;;;;;6.60;84.08;99653.81;5016302;28;20026;-64
2021/04/19 01:35:22;;;;;;;12.25;9.07;;;;;;;6.60;84.26;99656.47;5014569;28;20496;-63
2021/04/19 01:37:48;;;;;;;11.35;9.13;;;;;;;6.56;84.28;99649.91;5016017;28;20483;-64
2021/04/19 01:40:16;;;;;;;11.55;9.07;;;;;;;6.59;84.15;99659.34;5015928;28;20472;-63
2021/04/19 01:42:41;;;;;;;10.43;8.43;;;;;;;6.59;83.86;99660.19;5015865;28;20041;-63
2021/04/19 01:45:07;;;;;;;10.18;8.55;;;;;;;6.57;83.74;99661.41;5015640;28;20018;-63
2021/04/19 01:47:33;;;;;;;12.02;9.15;;;;;;;6.58;83.55;99655.84;5016054;28;20080;-63
2021/04/19 01:49:58;;;;;;;10.85;9.35;;;;;;;6.61;82.77;99654.63;5015930;28;20025;-63
2021/04/19 01:52:23;;;;;;;10.15;8.93;;;;;;;6.58;83.10;99649.72;5015578;28;20038;-63
2021/04/19 01:54:49;;;;;;;10.98;9.27;;;;;;;6.45;83.82;99651.34;5015005;28;20029;-63
2021/04/19 01:57:14;;;;;;;11.98;8.98;;;;;;;6.47;83.60;99643.19;5014235;28;20058;-63
2021/04/19 01:59:40;;;;;;;10.38;9.15;;;;;;;6.52;83.50;99642.56;5015996;28;20026;-63
2021/04/19 02:02:17;;;;;;;11.98;9.48;;;;;;;6.56;83.15;99647.25;5014170;28;20038;-63
2021/04/19 02:04:58;;;;;;;11.30;8.90;;;;;;;6.60;82.61;99651.16;5015867;28;20034;-63
2021/04/19 02:07:48;;;;;;;9.88;8.60;;;;;;;6.58;83.31;99641.72;5015374;28;20140;-63
2021/04/19 02:10:19;;;;;;;10.75;9.15;;;;;;;6.56;84.99;99643.78;5015309;28;20080;-63
2021/04/19 02:12:48;;;;;;;12.68;8.82;;;;;;;6.56;84.24;99647.25;5015509;28;20070;-63
2021/04/19 02:15:19;;;;;;;10.40;8.75;;;;;;;6.56;84.82;99649.91;5013980;28;20022;-63
2021/04/19 02:17:56;;;;;;;;;;;;;;;6.47;85.26;99653.81;5015040;28;20032;-63
2021/04/19 02:20:24;;;;;;;12.07;9.38;;;;;;;6.38;86.39;99649.72;5014912;28;19917;-63
2021/04/19 02:23:00;;;;;;;10.43;8.50;;;;;;;6.41;85.57;99651.97;5015496;28;20030;-63
2021/04/19 02:25:35;;;;;;;13.40;9.82;;;;;;;6.37;85.95;99658.75;5013833;28;20049;-63
2021/04/19 02:28:03;;;;;;;10.52;9.43;;;;;;;6.21;87.15;99650.09;4998065;28;20519;-63
2021/04/19 02:30:35;;;;;;;10.50;9.35;;;;;;;6.33;86.52;99654.84;5013237;28;20145;-63
2021/04/19 02:33:00;;;;;;;11.75;9.00;;;;;;;6.20;87.43;99651.16;5015310;28;20109;-63
2021/04/19 02:35:26;;;;;;;10.77;9.10;;;;;;;6.23;86.50;99639.28;5013667;28;20045;-63
2021/04/19 02:37:53;;;;;;;11.13;9.43;;;;;;;6.08;86.35;99646.63;5015223;28;20534;-63
2021/04/19 02:40:18;;;;;;;11.68;9.65;;;;;;;6.23;85.38;99645.41;4997175;28;20384;-63
2021/04/19 02:42:49;;;;;;;10.60;9.50;;;;;;;6.25;86.62;99638.03;5014099;28;20476;-63
2021/04/19 02:45:15;;;;;;;11.43;9.45;;;;;;;6.24;86.84;99641.75;4997086;28;20026;-63
2021/04/19 02:47:47;;;;;;;11.65;9.40;;;;;;;6.20;86.83;99643.16;5013769;28;20034;-63
2021/04/19 02:50:22;;;;;;;11.43;9.40;;;;;;;6.04;87.67;99640.88;5013314;28;20465;-63
2021/04/19 02:52:48;;;;;;;11.75;10.35;;;;;;;6.06;87.23;99641.50;5013525;28;20669;-63
2021/04/19 02:55:14;;;;;;;11.13;9.77;;;;;;;6.16;86.56;99641.09;4980690;28;20057;-63
2021/04/19 02:57:47;;;;;;;12.52;9.80;;;;;;;6.16;86.73;99643.75;5014714;28;20022;-63
2021/04/19 03:00:14;;;;;;;11.32;9.35;;;;;;;6.10;87.10;99640.09;5014467;28;20026;-63
2021/04/19 03:02:39;;;;;;;13.18;9.48;;;;;;;6.06;86.32;99644.16;5014721;28;20037;-63
2021/04/19 03:05:06;;;;;;;10.20;9.10;;;;;;;6.29;84.36;99641.13;5012818;28;20026;-63
2021/04/19 03:07:37;;;;;;;13.60;9.73;;;;;;;6.30;85.58;99640.09;4996493;28;20519;-63
2021/04/19 03:10:07;;;;;;;11.43;10.25;;;;;;;6.32;85.90;99646.03;5014114;28;20468;-63
2021/04/19 03:12:33;;;;;;;10.68;9.20;;;;;;;6.43;84.29;99633.94;5013035;28;20041;-63
2021/04/19 03:15:06;;;;;;;10.90;8.88;;;;;;;6.45;83.70;99634.56;5014544;28;20038;-63
2021/04/19 03:17:31;;;;;;;11.13;9.38;;;;;;;6.45;83.87;99640.72;5012785;28;20377;-63
2021/04/19 03:20:06;;;;;;;12.50;10.45;;;;;;;6.45;83.91;99631.91;5013000;28;20026;-63
2021/04/19 03:22:31;;;;;;;12.13;10.00;;;;;;;6.50;83.51;99637.44;4996339;28;20068;-63
2021/04/19 03:24:57;;;;;;;14.13;11.68;;;;;;;6.56;82.93;99644.59;5012992;28;20465;-63
2021/04/19 03:27:24;;;;;;;13.02;11.18;;;;;;;6.55;83.28;99636.81;5012612;28;20069;-63
2021/04/19 03:29:49;;;;;;;11.05;9.88;;;;;;;6.56;83.28;99638.44;5012873;28;20040;-64
2021/04/19 03:32:19;;;;;;;13.13;9.60;;;;;;;6.54;83.46;99635.16;5012412;28;20034;-63
2021/04/19 03:34:45;;;;;;;14.70;10.43;;;;;;;6.56;83.27;99635.78;4980748;28;20026;-63
2021/04/19 03:37:14;;;;;;;11.90;9.93;;;;;;;6.55;83.31;99634.97;4995993;28;20133;-63
2021/04/19 03:39:40;;;;;;;13.20;10.05;;;;;;;6.56;83.60;99630.44;5012835;28;20043;-63
2021/04/19 03:42:05;;;;;;;12.77;10.48;;;;;;;6.53;83.67;99631.69;4995939;28;20402;-63
2021/04/19 03:44:32;;;;;;;13.20;10.07;;;;;;;6.56;83.30;99627.78;4996211;28;20487;-63
2021/04/19 03:46:57;;;;;;;13.52;10.35;;;;;;;6.53;83.46;99634.34;4998271;28;20042;-63
2021/04/19 03:49:27;;;;;;;12.65;9.75;;;;;;;6.52;83.74;99632.72;5012826;28;20457;-63
2021/04/19 03:51:53;;;;;;;11.93;9.32;;;;;;;6.52;83.31;99638.06;5013507;28;20034;-63
2021/04/19 03:54:19;;;;;;;12.07;10.23;;;;;;;6.55;83.71;99639.47;4996458;28;20491;-63
2021/04/19 03:56:44;;;;;;;12.52;9.88;;;;;;;6.55;83.59;99637.63;5012372;28;20045;-65
2021/04/19 03:59:12;;;;;;;11.57;9.68;;;;;;;6.55;83.32;99636.81;5012772;28;20385;-65
2021/04/19 04:02:01;;;;;;;13.15;9.75;;;;;;;6.51;84.22;99631.06;5011824;28;20559;-63
2021/04/19 04:04:26;;;;;;;11.73;9.52;;;;;;;6.53;84.60;99634.34;5012455;28;20472;-63
2021/04/19 04:06:52;;;;;;;13.02;10.18;;;;;;;6.57;83.80;99632.13;4979184;28;20048;-63
2021/04/19 04:09:17;;;;;;;12.23;10.13;;;;;;;6.54;83.66;99630.69;5012414;28;20101;-63
2021/04/19 04:11:43;;;;;;;13.93;10.40;;;;;;;6.50;83.76;99625.97;5013110;28;20061;-63
2021/04/19 04:14:08;;;;;;;15.13;11.27;;;;;;;6.48;84.00;99634.16;5012062;28;20026;-63
2021/04/19 04:16:38;;;;;;;10.65;8.93;;;;;;;6.51;83.75;99635.56;5011731;28;20124;-63
2021/04/19 04:19:03;;;;;;;12.43;10.05;;;;;;;6.52;83.91;99629.25;5012688;28;20065;-63
2021/04/19 04:21:29;;;;;;;12.82;9.73;;;;;;;6.56;83.73;99635.78;5012896;28;20404;-63
2021/04/19 04:23:54;;;;;;;12.13;9.95;;;;;;;6.55;83.81;99640.28;5012073;28;20033;-63
2021/04/19 04:26:19;;;;;;;11.57;9.77;;;;;;;6.56;83.01;99644.59;5011486;28;20488;-63
2021/04/19 04:28:45;;;;;;;11.43;9.95;;;;;;;6.54;83.48;99644.00;5011930;28;20041;-63
2021/04/19 04:31:11;;;;;;;12.38;9.35;;;;;;;6.51;83.63;99647.03;5012831;28;20042;-63
2021/04/19 04:33:36;;;;;;;11.77;9.98;;;;;;;6.50;84.13;99644.59;5013324;28;20033;-63
2021/04/19 04:36:01;;;;;;;13.70;10.27;;;;;;;6.61;82.96;99636.78;5011513;28;20425;-63
2021/04/19 04:38:27;;;;;;;12.68;10.15;;;;;;;6.50;84.12;99637.44;5013035;28;20049;-64
2021/04/19 04:40:52;;;;;;;13.13;9.52;;;;;;;6.53;83.54;99645.00;5012724;28;20035;-63
2021/04/19 04:43:23;;;;;;;12.32;9.18;;;;;;;6.61;83.30;99641.31;5013025;28;20038;-63
2021/04/19 04:45:48;;;;;;;12.07;9.20;;;;;;;6.55;83.26;99639.47;4995873;28;20062;-63
2021/04/19 04:48:24;;;;;;;12.52;9.52;;;;;;;6.58;83.13;99644.38;4992432;28;20491;-63
2021/04/19 04:50:55;;;;;;;12.35;9.40;;;;;;;6.55;83.72;99648.28;5008152;28;20050;-63
2021/04/19 04:53:58;;;;;;;11.80;9.68;;;;;;;6.57;83.16;99651.56;4992338;28;20031;-63
2021/04/19 04:56:25;;;;;;;12.00;9.27;;;;;;;6.58;83.68;99652.38;4990544;28;20049;-64
2021/04/19 04:58:55;;;;;;;11.68;9.40;;;;;;;6.50;83.99;99656.06;4988448;28;20035;-64
2021/04/19 05:01:22;;;;;;;11.25;9.82;;;;;;;6.46;83.67;99661.00;4992994;28;20034;-64
2021/04/19 05:03:47;;;;;;;14.35;9.43;;;;;;;6.59;83.42;99660.19;5008497;28;20469;-64
2021/04/19 05:06:13;;;;;;;10.30;8.95;;;;;;;6.57;83.45;99664.88;4991659;28;20069;-63
2021/04/19 05:08:38;;;;;;;12.88;10.10;;;;;;;6.52;83.22;99663.88;5008715;28;20086;-65
2021/04/19 05:11:04;;;;;;;13.50;9.23;;;;;;;6.50;82.50;99666.72;4991708;28;20034;-64
2021/04/19 05:13:29;;;;;;;15.75;9.65;;;;;;;6.45;83.36;99669.19;4993298;28;20042;-64
2021/04/19 05:15:56;;;;;;;14.05;9.55;;;;;;;6.53;83.71;99660.97;5008098;28;20132;-63
2021/04/19 05:18:21;;;;;;;15.93;9.95;;;;;;;6.58;82.89;99671.84;5008591;28;20473;-63
2021/04/19 05:20:47;;;;;;;13.48;9.50;;;;;;;6.50;83.62;99665.91;4993043;28;20088;-63
2021/04/19 05:23:12;;;;;;;12.40;9.50;;;;;;;6.56;83.34;99671.22;4992500;28;20093;-64
2021/04/19 05:25:38;;;;;;;15.55;9.65;;;;;;;6.61;82.48;99662.63;5007725;28;20041;-64
2021/04/19 05:28:04;;;;;;;12.68;9.80;;;;;;;6.58;83.06;99665.69;4993475;28;20022;-64
2021/04/19 05:30:30;;;;;;;12.70;10.13;;;;;;;6.48;83.69;99666.09;4993604;28;20378;-63
2021/04/19 05:32:59;;;;;;;12.00;9.88;;;;;;;6.43;83.81;99669.38;4996872;28;20026;-64
2021/04/19 05:35:26;;;;;;;14.45;9.80;;;;;;;6.42;84.16;99665.09;4995991;28;20058;-63
2021/04/19 05:37:51;;;;;;;13.20;9.75;;;;;;;6.43;83.73;99668.56;5012150;28;20088;-63
2021/04/19 05:40:18;;;;;;;13.52;9.68;;;;;;;6.46;84.71;99668.16;5026885;28;20033;-64
2021/04/19 05:42:43;;;;;;;11.60;9.82;;;;;;;6.45;84.59;99675.31;5015332;28;20060;-64
2021/04/19 05:45:09;;;;;;;13.18;9.98;;;;;;;6.50;83.75;99672.03;4998416;28;20427;-64
2021/04/19 05:47:37;;;;;;;12.68;10.13;;;;;;;6.41;84.15;99679.41;5015030;28;20033;-64
2021/04/19 05:50:02;;;;;;;14.90;10.35;;;;;;;6.52;83.87;99677.19;5014548;28;20034;-64
2021/04/19 05:52:28;;;;;;;17.33;10.05;;;;;;;6.43;83.94;99676.56;5016153;28;20018;-64
2021/04/19 05:54:53;;;;;;;14.50;10.80;;;;;;;6.35;84.62;99690.06;4998609;28;20025;-64
2021/04/19 05:57:26;;;;;;;13.73;10.80;;;;;;;6.31;84.79;99681.66;4998116;28;20030;-64
2021/04/19 05:59:59;;;;;;;14.40;10.80;;;;;;;6.36;84.99;99681.03;5014779;28;20388;-64
2021/04/19 06:02:47;;;;;;;17.85;11.18;;;;;;;6.38;84.23;99687.00;5015478;28;20209;-64
2021/04/19 06:05:20;;;;;;;19.48;11.20;;;;;;;6.39;84.61;99693.94;5014433;28;20131;-64
2021/04/19 06:07:47;;;;;;;17.58;10.77;;;;;;;6.32;84.98;99690.47;5014446;28;20038;-64
2021/04/19 06:10:48;;;;;;;16.25;11.65;;;;;;;6.31;85.27;99696.81;4998003;28;20040;-64
2021/04/19 06:13:14;;;;;;;13.15;10.88;;;;;;;6.25;85.47;99691.28;5015553;28;20056;-64
2021/04/19 06:15:40;;;;;;;14.95;11.20;;;;;;;6.34;85.23;99693.75;4997878;28;20042;-64
2021/04/19 06:18:05;;;;;;;15.15;11.85;;;;;;;6.22;85.93;99697.00;4997860;28;20084;-64
2021/04/19 06:20:31;;;;;;;14.25;11.45;;;;;;;6.33;85.84;99692.91;5013703;28;20031;-64
2021/04/19 06:22:57;;;;;;;16.17;10.93;;;;;;;6.35;85.17;99690.88;4998005;28;20030;-64
2021/04/19 06:25:23;;;;;;;16.75;12.23;;;;;;;6.35;84.67;99695.41;4997466;28;20045;-64
2021/04/19 06:27:48;;;;;;;17.10;11.57;;;;;;;6.39;84.93;99691.28;5014084;28;20091;-64
2021/04/19 06:30:16;;;;;;;14.45;12.40;;;;;;;6.28;85.55;99699.88;5013711;28;20036;-64
2021/04/19 06:32:42;;;;;;;15.50;10.70;;;;;;;6.37;85.75;99699.50;5015220;28;20076;-64
2021/04/19 06:35:09;;;;;;;15.13;11.35;;;;;;;6.30;85.36;99698.66;5013603;28;20064;-64
2021/04/19 06:37:34;;;;;;;13.23;11.50;;;;;;;6.28;85.27;99694.56;5015142;28;20061;-64
2021/04/19 06:40:00;;;;;;;13.95;11.57;;;;;;;6.25;86.33;99696.59;5014988;28;20029;-64
2021/04/19 06:42:25;;;;;;;17.30;12.15;;;;;;;6.25;85.86;99696.59;5013915;28;20042;-64
2021/04/19 06:44:50;;;;;;;16.67;12.10;;;;;;;6.35;86.33;99696.22;5015151;28;20357;-64
2021/04/19 06:47:17;;;;;;;14.45;11.02;;;;;;;6.48;86.50;99696.22;5014425;28;20046;-65
2021/04/19 06:49:46;;;;;;;18.73;11.80;;;;;;;6.43;86.10;99703.19;4997507;28;20025;-64
2021/04/19 06:52:11;;;;;;;15.70;11.77;;;;;;;6.41;86.52;99699.91;5014326;28;20131;-64
2021/04/19 06:54:37;;;;;;;15.98;11.70;;;;;;;6.48;86.46;99706.03;5013512;28;20033;-64
2021/04/19 06:57:03;;;;;;;16.30;12.57;;;;;;;6.49;86.11;99707.69;5013159;28;20112;-64
2021/04/19 06:59:28;;;;;;;16.92;12.27;;;;;;;6.59;86.34;99702.78;4997036;28;20420;-64
2021/04/19 07:01:55;;;;;;;16.75;12.68;;;;;;;6.69;85.88;99713.84;5012984;28;20069;-64
2021/04/19 07:04:23;;;;;;;15.63;12.68;;;;;;;6.57;86.42;99706.69;5014654;28;20029;-64
2021/04/19 07:06:49;;;;;;;18.42;12.55;;;;;;;6.37;87.75;99706.66;4996537;28;20130;-65
2021/04/19 07:09:32;;;;;;;17.23;13.00;;;;;;;6.46;87.06;99702.75;5014423;28;20022;-64
2021/04/19 07:11:59;;;;;;;16.95;14.00;;;;;;;6.38;87.31;99710.97;4996593;28;20050;-64
2021/04/19 07:14:25;;;;;;;18.33;13.95;;;;;;;6.29;87.73;99709.50;5014527;28;20105;-64
2021/04/19 07:16:51;;;;;;;19.65;12.48;;;;;;;6.30;87.82;99708.50;5012921;28;20044;-64
2021/04/19 07:19:17;;;;;;;16.08;13.50;;;;;;;6.22;87.16;99712.19;5013053;28;20022;-64
2021/04/19 07:21:42;;;;;;;18.00;14.35;;;;;;;6.32;87.67;99709.13;5012757;28;20042;-64
2021/04/19 07:24:08;;;;;;;20.40;14.98;;;;;;;6.20;87.71;99706.22;5014528;28;20029;-64
2021/04/19 07:26:33;;;;;;;16.67;14.05;;;;;;;6.31;88.40;99715.44;5013604;28;20107;-64
2021/04/19 07:28:59;;;;;;;21.67;16.92;;;;;;;6.37;86.88;99714.66;5014506;28;20037;-64
2021/04/19 07:31:25;;;;;;;20.17;16.58;;;;;;;6.35;87.48;99712.19;5012567;28;20050;-65
2021/04/19 07:33:50;;;;;;;20.85;14.77;;;;;;;6.39;87.29;99712.59;5013890;28;20476;-64
2021/04/19 07:36:32;;;;;;;18.17;14.75;;;;;;;6.43;87.49;99711.16;5013782;28;20080;-64
2021/04/19 07:38:59;;;;;;;16.73;13.90;;;;;;;6.40;86.63;99704.41;5013867;28;20026;-64
2021/04/19 07:41:54;;;;;;;20.27;15.65;;;;;;;6.37;87.35;99704.81;5013545;28;20496;-64
2021/04/19 07:44:43;;;;;;;18.85;14.82;;;;;;;6.32;88.20;99712.59;5005746;28;20026;-65
2021/04/19 07:47:21;;;;;;;19.08;16.52;;;;;;;6.31;88.00;99710.13;5008042;28;20046;-64
2021/04/19 07:50:12;;;;;;;19.88;16.25;;;;;;;6.10;88.03;99711.94;5013800;28;20038;-65
2021/04/19 07:53:01;;;;;;;20.83;16.92;;;;;;;6.26;88.55;99708.91;5013347;28;20045;-64
2021/04/19 07:55:33;;;;;;;18.30;15.38;;;;;;;6.44;88.04;99710.13;5012630;28;20431;-64
2021/04/19 07:57:59;;;;;;;18.75;16.35;;;;;;;6.42;87.57;99706.88;5012467;28;20033;-65
2021/04/19 08:00:30;;;;;;;17.25;13.95;;;;;;;6.57;86.01;99704.84;5013421;28;20040;-64
2021/04/19 08:03:13;;;;;;;19.20;15.55;;;;;;;6.55;87.68;99701.53;5013601;28;20083;-64
2021/04/19 08:05:41;;;;;;;23.65;20.40;;;;;;;6.64;87.06;99705.66;5013144;28;20042;-64
2021/04/19 08:08:07;;;;;;;20.17;15.75;;;;;;;6.84;86.16;99702.13;5012133;28;20147;-64
2021/04/19 08:10:33;;;;;;;23.60;20.92;;;;;;;6.92;85.93;99701.94;5013223;28;20080;-65
2021/04/19 08:13:03;;;;;;;27.88;24.98;;;;;;;7.10;85.44;99704.78;5012154;28;20046;-64
2021/04/19 08:15:28;;;;;;;29.75;24.92;;;;;;;7.16;85.71;99707.63;5011798;28;20433;-65
2021/04/19 08:18:05;;;;;;;38.42;34.58;;;;;;;7.20;85.47;99704.34;5012070;28;20117;-65
2021/04/19 08:20:30;;;;;;;25.73;23.02;;;;;;;7.03;86.17;99703.97;5013180;28;20040;-64
2021/04/19 08:23:10;;;;;;;17.20;15.50;;;;;;;7.13;85.31;99701.69;5012019;28;20396;-64
2021/04/19 08:25:43;;;;;;;18.60;15.50;;;;;;;7.09;85.78;99702.34;5012921;28;20034;-64
2021/04/19 08:28:14;;;;;;;16.63;14.20;;;;;;;7.42;84.39;99704.91;5011962;28;20096;-64
2021/04/19 08:30:41;;;;;;;21.70;16.33;;;;;;;7.62;83.74;99706.69;5011864;28;20038;-64
2021/04/19 08:33:06;;;;;;;19.60;16.48;;;;;;;7.88;81.71;99706.56;5013407;28;20092;-64
2021/04/19 08:35:32;;;;;;;13.40;11.95;;;;;;;7.90;81.35;99709.03;5011602;28;20038;-64
2021/04/19 08:37:59;;;;;;;12.55;11.25;;;;;;;7.89;81.28;99712.75;5013068;28;20022;-65
2021/04/19 08:40:26;;;;;;;13.05;11.07;;;;;;;7.84;81.32;99710.72;5012738;28;20061;-65
2021/04/19 08:42:52;;;;;;;13.05;10.75;;;;;;;7.94;80.02;99710.25;5013020;28;20030;-63
2021/04/19 08:45:18;;;;;;;14.90;13.30;;;;;;;8.05;80.62;99712.22;5011545;28;20148;-63
2021/04/19 08:47:44;;;;;;;14.52;12.52;;;;;;;8.11;80.84;99716.72;5011705;28;20030;-63
2021/04/19 08:50:16;;;;;;;14.35;11.50;;;;;;;8.18;81.71;99722.00;5012613;28;20057;-63
2021/04/19 08:52:42;;;;;;;13.70;10.82;;;;;;;8.61;78.53;99718.66;5011741;28;20026;-63
2021/04/19 08:55:07;;;;;;;12.70;10.75;;;;;;;8.40;79.72;99715.31;4994974;28;20026;-63
2021/04/19 08:57:34;;;;;;;12.45;9.95;;;;;;;8.49;78.50;99723.09;4995347;28;20376;-63
2021/04/19 08:59:59;;;;;;;12.30;9.07;;;;;;;8.21;76.83;99713.56;5013159;28;20388;-64
2021/04/19 09:02:25;;;;;;;11.45;9.63;;;;;;;8.35;79.61;99709.78;5011251;28;20415;-63
2021/04/19 09:05:23;;;;;;;10.75;9.30;;;;;;;8.87;77.61;99711.47;4995583;28;20473;-64
2021/04/19 09:07:49;;;;;;;11.25;10.07;;;;;;;8.97;76.41;99719.81;4982794;28;20048;-63
2021/04/19 09:10:16;;;;;;;11.20;9.40;;;;;;;9.17;74.28;99719.63;5015217;28;20104;-63
2021/04/19 09:12:42;;;;;;;11.50;9.07;;;;;;;9.25;75.68;99713.97;5016356;28;20492;-63
2021/04/19 09:15:14;;;;;;;9.05;7.53;;;;;;;8.95;73.30;99712.00;5016242;28;20040;-63
2021/04/19 09:17:41;;;;;;;8.20;7.10;;;;;;;9.32;71.11;99713.91;5016817;28;20376;-65
2021/04/19 09:20:11;;;;;;;9.57;8.55;;;;;;;9.71;72.58;99713.47;5015143;28;20365;-65
2021/04/19 09:22:37;;;;;;;9.27;7.60;;;;;;;9.94;70.06;99715.44;5017086;28;20056;-66
2021/04/19 09:25:14;;;;;;;9.85;7.75;;;;;;;9.43;72.16;99713.97;5016290;28;20034;-62
2021/04/19 09:27:51;;;;;;;7.85;6.95;;;;;;;9.27;70.01;99720.75;5015349;28;20026;-63
2021/04/19 09:30:26;;;;;;;8.38;7.00;;;;;;;8.68;72.92;99718.63;5014532;28;20026;-65
2021/04/19 09:33:04;;;;;;;8.77;7.35;;;;;;;9.75;70.35;99716.50;5016005;28;20022;-63
2021/04/19 09:35:43;;;;;;;11.05;9.35;;;;;;;10.34;71.15;99714.09;5016018;28;20042;-64
2021/04/19 09:38:10;;;;;;;9.23;8.27;;;;;;;10.71;69.78;99720.13;5016316;28;20030;-64
2021/04/19 09:40:50;;;;;;;8.27;7.38;;;;;;;11.27;66.20;99712.53;5014483;28;20392;-65
2021/04/19 09:43:34;;;;;;;9.43;7.70;;;;;;;11.09;67.15;99723.41;5016032;28;20427;-64
2021/04/19 09:46:06;;;;;;;8.32;7.35;;;;;;;11.53;68.04;99721.13;5015708;28;20038;-63
2021/04/19 09:48:31;;;;;;;7.65;6.90;;;;;;;12.14;65.32;99722.38;5016019;28;20480;-63
2021/04/19 09:50:58;;;;;;;7.25;6.03;;;;;;;11.10;63.95;99716.97;5015583;28;20045;-64
2021/04/19 09:53:25;;;;;;;7.55;6.43;;;;;;;10.97;64.63;99718.84;5015984;28;20092;-63
2021/04/19 09:55:50;;;;;;;7.78;6.40;;;;;;;11.67;63.38;99717.13;5015420;28;20045;-63
2021/04/19 09:58:16;;;;;;;7.00;6.05;;;;;;;11.14;62.07;99720.84;5016127;28;20049;-63
2021/04/19 10:00:42;;;;;;;5.78;5.15;;;;;;;12.12;57.92;99716.41;5015640;28;20045;-63
2021/04/19 10:03:08;;;;;;;6.35;5.30;;;;;;;11.01;61.39;99709.28;5014907;28;20460;-64
2021/04/19 10:05:33;;;;;;;6.63;5.90;;;;;;;11.29;62.90;99707.75;5014109;28;20033;-65
2021/04/19 10:08:00;;;;;;;7.40;6.28;;;;;;;11.80;66.43;99710.66;4998116;28;20034;-64
2021/04/19 10:10:26;;;;;;;7.80;6.50;;;;;;;12.63;61.41;99717.31;4997778;28;20100;-63
2021/04/19 10:12:51;;;;;;;7.75;6.95;;;;;;;13.46;59.76;99706.72;5014565;28;20038;-64
2021/04/19 10:15:21;;;;;;;7.00;5.72;;;;;;;13.31;58.19;99704.63;5014999;28;20025;-63
2021/04/19 10:17:46;;;;;;;6.13;4.90;;;;;;;11.57;60.85;99703.50;5013543;28;20088;-63
2021/04/19 10:20:18;;;;;;;5.40;4.78;;;;;;;11.11;60.55;99697.16;5015221;28;20025;-63
2021/04/19 10:22:44;;;;;;;5.38;4.30;;;;;;;11.49;57.70;99703.88;5014347;28;20350;-65
2021/04/19 10:25:10;;;;;;;6.50;4.80;;;;;;;11.80;58.45;99702.59;5014188;28;20103;-63
2021/04/19 10:27:36;;;;;;;7.82;5.00;;;;;;;12.03;57.20;99704.41;5015669;28;20068;-63
2021/04/19 10:30:13;;;;;;;5.85;5.22;;;;;;;12.19;60.04;99695.59;5013703;28;20093;-63
2021/04/19 10:32:38;;;;;;;7.18;5.35;;;;;;;12.27;57.38;99700.56;5015389;28;20018;-64
2021/04/19 10:35:24;;;;;;;6.20;5.25;;;;;;;13.67;54.21;99691.63;5014725;28;20025;-64
2021/04/19 10:37:50;;;;;;;5.63;5.03;;;;;;;12.52;58.70;99697.50;5015071;28;20029;-64
2021/04/19 10:40:15;;;;;;;6.88;5.50;;;;;;;13.42;56.19;99692.13;5013529;28;20034;-63
2021/04/19 10:42:41;;;;;;;9.38;6.10;;;;;;;12.88;58.65;99689.16;4997813;28;20037;-64
2021/04/19 10:45:08;;;;;;;7.07;5.18;;;;;;;12.21;60.14;99685.41;5013347;28;20018;-63
2021/04/19 10:47:33;;;;;;;6.75;5.47;;;;;;;11.97;60.94;99683.91;5015082;28;20076;-63
2021/04/19 10:49:59;;;;;;;7.53;5.47;;;;;;;11.76;60.87;99680.78;5014899;28;20025;-63
2021/04/19 10:52:24;;;;;;;5.63;4.40;;;;;;;11.36;57.23;99684.28;4996933;28;20081;-63
2021/04/19 10:54:50;;;;;;;5.72;4.53;;;;;;;11.83;55.96;99673.41;5014985;28;20049;-63
2021/04/19 10:57:25;;;;;;;5.72;4.60;;;;;;;11.94;55.37;99669.06;4996737;28;20515;-63
2021/04/19 10:59:55;;;;;;;6.07;4.40;;;;;;;11.75;55.55;99673.78;5014833;28;20030;-63
2021/04/19 11:02:27;;;;;;;4.90;4.10;;;;;;;11.48;54.88;99664.66;5014060;28;20401;-63
2021/04/19 11:04:57;;;;;;;5.30;4.20;;;;;;;11.63;56.00;99659.56;5014582;28;20400;-63
2021/04/19 11:07:34;;;;;;;5.15;3.75;;;;;;;12.40;50.68;99661.00;5013704;28;20053;-63
2021/04/19 11:10:21;;;;;;;5.25;4.15;;;;;;;13.29;50.89;99668.25;5014732;28;20021;-63
2021/04/19 11:13:01;;;;;;;5.50;4.53;;;;;;;12.78;51.07;99662.13;5013954;28;20480;-63
2021/04/19 11:15:30;;;;;;;5.15;4.05;;;;;;;13.10;51.56;99659.63;5012979;28;20046;-64
2021/04/19 11:17:56;;;;;;;5.93;4.45;;;;;;;11.95;55.04;99659.13;5014501;28;20030;-63
2021/04/19 11:20:22;;;;;;;6.22;4.50;;;;;;;13.17;52.30;99661.06;5013955;28;20506;-66
2021/04/19 11:22:48;;;;;;;5.05;4.05;;;;;;;12.12;53.12;99653.81;5013125;28;20018;-63
2021/04/19 11:25:13;;;;;;;6.95;4.15;;;;;;;12.41;53.75;99657.25;5012436;28;20104;-63
2021/04/19 11:27:39;;;;;;;5.55;3.60;;;;;;;12.58;49.15;99658.09;5014177;28;20030;-63
2021/04/19 11:30:25;;;;;;;5.80;3.45;;;;;;;13.66;48.52;99646.91;5013476;28;20121;-63
2021/04/19 11:33:03;;;;;;;4.63;3.58;;;;;;;14.85;46.17;99652.28;5014193;28;20084;-63
2021/04/19 11:35:34;;;;;;;5.07;4.13;;;;;;;16.13;44.09;99650.91;5013273;28;20490;-63
2021/04/19 11:38:04;;;;;;;6.22;5.10;;;;;;;15.89;47.41;99644.38;4994442;28;20030;-63